sensor_id;sensor_type;location;lat;lon;timestamp;pressure;altitude;pressure_sealevel;temperature;humidity
23659;BME280;12006;42.666;23.326;2023-04-01T00:00:21;-21646.59;;;12.49;100.00
23659;BME280;12006;42.666;23.326;2023-04-01T00:02:47;-21646.59;;;12.49;100.00
23659;BME280;12006;42.666;23.326;2023-04-01T00:05:13;-21967.78;;;12.54;100.00
23659;BME280;12006;42.666;23.326;2023-04-01T00:07:39;-21967.34;;;12.53;100.00
23659;BME280;12006;42.666;23.326;2023-04-01T00:10:10;-21965.03;;;12.45;100.00
23659;BME280;12006;42.666;23.326;2023-04-01T00:12:36;-21639.38;;;12.25;100.00
23659;BME280;12006;42.666;23.326;2023-04-01T00:15:03;-21638.47;;;12.22;100.00
23659;BME280;12006;42.666;23.326;2023-04-01T00:17:29;-21959.50;;;12.27;100.00
23659;BME280;12006;42.666;23.326;2023-04-01T00:19:55;-21637.56;;;12.19;100.00
23659;BME280;12006;42.666;23.326;2023-04-01T00:22:21;-21637.09;;;12.18;100.00
23659;BME280;12006;42.666;23.326;2023-04-01T00:24:47;-21635.44;;;12.12;100.00
23659;BME280;12006;42.666;23.326;2023-04-01T00:27:13;-21632.44;;;12.03;100.00
23659;BME280;12006;42.666;23.326;2023-04-01T00:29:44;-21635.44;;;12.12;100.00
23659;BME280;12006;42.666;23.326;2023-04-01T00:32:10;-21629.41;;;11.93;100.00
23659;BME280;12006;42.666;23.326;2023-04-01T00:34:36;-21631.22;;;11.99;100.00
23659;BME280;12006;42.666;23.326;2023-04-01T00:37:02;-21629.41;;;11.93;100.00
23659;BME280;12006;42.666;23.326;2023-04-01T00:39:31;-21629.56;;;11.93;100.00
23659;BME280;12006;42.666;23.326;2023-04-01T00:41:57;-21949.53;;;11.95;100.00
23659;BME280;12006;42.666;23.326;2023-04-01T00:44:24;-21949.69;;;11.96;100.00
23659;BME280;12006;42.666;23.326;2023-04-01T00:46:50;-21947.88;;;11.90;100.00
23659;BME280;12006;42.666;23.326;2023-04-01T00:49:19;-21944.47;;;11.79;100.00
23659;BME280;12006;42.666;23.326;2023-04-01T00:51:47;-21944.19;;;11.78;100.00
23659;BME280;12006;42.666;23.326;2023-04-01T00:54:15;-21939.28;;;11.62;100.00
23659;BME280;12006;42.666;23.326;2023-04-01T00:56:59;-22261.56;;;11.72;100.00
23659;BME280;12006;42.666;23.326;2023-04-01T00:59:40;-21940.97;;;11.67;100.00
23659;BME280;12006;42.666;23.326;2023-04-01T01:02:08;-21938.66;;;11.60;100.00
23659;BME280;12006;42.666;23.326;2023-04-01T01:04:35;-21936.66;;;11.53;100.00
23659;BME280;12006;42.666;23.326;2023-04-01T01:07:22;-21617.06;;;11.52;100.00
23659;BME280;12006;42.666;23.326;2023-04-01T01:15:32;-22245.81;;;11.22;100.00
23659;BME280;12006;42.666;23.326;2023-04-01T01:34:28;-22560.47;;;11.08;100.00
23659;BME280;12006;42.666;23.326;2023-04-01T01:36:59;-22237.53;;;10.95;100.00
23659;BME280;12006;42.666;23.326;2023-04-01T01:39:28;-22553.00;;;10.85;100.00
23659;BME280;12006;42.666;23.326;2023-04-01T01:41:57;-22233.47;;;10.83;100.00
23659;BME280;12006;42.666;23.326;2023-04-01T01:44:27;-22234.09;;;10.85;100.00
23659;BME280;12006;42.666;23.326;2023-04-01T01:46:55;-22237.84;;;10.96;100.00
23659;BME280;12006;42.666;23.326;2023-04-01T01:49:22;-22239.09;;;11.00;100.00
23659;BME280;12006;42.666;23.326;2023-04-01T01:51:49;-21922.38;;;11.07;100.00
23659;BME280;12006;42.666;23.326;2023-04-01T01:54:16;-21924.84;;;11.15;100.00
23659;BME280;12006;42.666;23.326;2023-04-01T01:56:46;-22244.09;;;11.16;100.00
23659;BME280;12006;42.666;23.326;2023-04-01T01:59:13;-21925.16;;;11.16;100.00
23659;BME280;12006;42.666;23.326;2023-04-01T02:01:42;-22244.72;;;11.18;100.00
23659;BME280;12006;42.666;23.326;2023-04-01T02:04:10;-22241.75;;;11.09;100.00
23659;BME280;12006;42.666;23.326;2023-04-01T02:06:38;-22560.31;;;11.08;100.00
23659;BME280;12006;42.666;23.326;2023-04-01T02:09:08;-22560.94;;;11.10;100.00
23659;BME280;12006;42.666;23.326;2023-04-01T02:16:57;-22246.28;;;11.23;100.00
23659;BME280;12006;42.666;23.326;2023-04-01T02:19:31;-22248.44;;;11.30;100.00
23659;BME280;12006;42.666;23.326;2023-04-01T02:22:01;-22248.31;;;11.30;100.00
23659;BME280;12006;42.666;23.326;2023-04-01T02:24:30;-22248.00;;;11.29;100.00
23659;BME280;12006;42.666;23.326;2023-04-01T02:26:56;-22248.91;;;11.32;100.00
23659;BME280;12006;42.666;23.326;2023-04-01T02:29:23;-22245.97;;;11.22;100.00
23659;BME280;12006;42.666;23.326;2023-04-01T02:31:51;-21928.38;;;11.27;100.00
23659;BME280;12006;42.666;23.326;2023-04-01T02:34:19;-21934.19;;;11.46;100.00
23659;BME280;12006;42.666;23.326;2023-04-01T02:40:48;-21614.94;;;11.45;100.00
23659;BME280;12006;42.666;23.326;2023-04-01T02:43:14;-20658.00;;;11.47;100.00
23659;BME280;12006;42.666;23.326;2023-04-01T02:45:39;-21620.06;;;11.62;100.00
23659;BME280;12006;42.666;23.326;2023-04-01T02:48:05;-21940.03;;;11.64;100.00
23659;BME280;12006;42.666;23.326;2023-04-01T02:50:30;-20984.06;;;11.70;100.00
23659;BME280;12006;42.666;23.326;2023-04-01T02:52:56;-21624.59;;;11.77;100.00
23659;BME280;12006;42.666;23.326;2023-04-01T02:55:21;-21625.19;;;11.79;100.00
23659;BME280;12006;42.666;23.326;2023-04-01T02:57:47;-21621.44;;;11.66;100.00
23659;BME280;12006;42.666;23.326;2023-04-01T03:00:12;-21622.19;;;11.69;100.00
23659;BME280;12006;42.666;23.326;2023-04-01T03:02:38;-21622.47;;;11.70;100.00
23659;BME280;12006;42.666;23.326;2023-04-01T03:05:04;-21944.03;;;11.77;100.00
23659;BME280;12006;42.666;23.326;2023-04-01T03:07:31;-21305.59;;;11.78;100.00
23659;BME280;12006;42.666;23.326;2023-04-01T03:09:56;-21624.91;;;11.78;100.00
23659;BME280;12006;42.666;23.326;2023-04-01T03:12:22;-21622.19;;;11.69;100.00
23659;BME280;12006;42.666;23.326;2023-04-01T03:14:47;-21305.59;;;11.78;100.00
23659;BME280;12006;42.666;23.326;2023-04-01T03:17:13;-21306.19;;;11.80;100.00
23659;BME280;12006;42.666;23.326;2023-04-01T03:19:38;-21308.25;;;11.87;100.00
23659;BME280;12006;42.666;23.326;2023-04-01T03:22:04;-21628.66;;;11.90;100.00
23659;BME280;12006;42.666;23.326;2023-04-01T03:24:29;-21621.56;;;11.67;100.00
23659;BME280;12006;42.666;23.326;2023-04-01T03:26:54;-21942.94;;;11.74;100.00
23659;BME280;12006;42.666;23.326;2023-04-01T03:29:20;-22258.91;;;11.63;100.00
23659;BME280;12006;42.666;23.326;2023-04-01T03:31:45;-21936.34;;;11.52;100.00
23659;BME280;12006;42.666;23.326;2023-04-01T03:34:10;-21933.75;;;11.44;100.00
23659;BME280;12006;42.666;23.326;2023-04-01T03:36:36;-22252.19;;;11.42;100.00
23659;BME280;12006;42.666;23.326;2023-04-01T03:39:01;-22249.41;;;11.33;100.00
23659;BME280;12006;42.666;23.326;2023-04-01T03:41:28;-23203.69;;;11.25;100.00
23659;BME280;12006;42.666;23.326;2023-04-01T03:43:55;-24156.44;;;11.14;100.00
23659;BME280;12006;42.666;23.326;2023-04-01T03:46:21;-24154.22;;;11.02;100.00
23659;BME280;12006;42.666;23.326;2023-04-01T03:48:46;-24151.81;;;10.95;100.00
23659;BME280;12006;42.666;23.326;2023-04-01T03:51:12;-24148.19;;;10.85;100.00
23659;BME280;12006;42.666;23.326;2023-04-01T03:53:37;-24152.16;;;10.96;100.00
23659;BME280;12006;42.666;23.326;2023-04-01T03:56:04;-24152.50;;;10.97;100.00
23659;BME280;12006;42.666;23.326;2023-04-01T03:58:30;-24152.16;;;10.96;100.00
23659;BME280;12006;42.666;23.326;2023-04-01T04:00:55;-24149.94;;;10.95;100.00
23659;BME280;12006;42.666;23.326;2023-04-01T04:03:21;-24153.38;;;11.05;100.00
23659;BME280;12006;42.666;23.326;2023-04-01T04:05:47;-24157.31;;;11.17;100.00
23659;BME280;12006;42.666;23.326;2023-04-01T04:08:13;-24158.69;;;11.21;100.00
23659;BME280;12006;42.666;23.326;2023-04-01T04:10:38;-24158.16;;;11.19;100.00
23659;BME280;12006;42.666;23.326;2023-04-01T04:13:05;-24143.41;;;10.77;100.00
23659;BME280;12006;42.666;23.326;2023-04-01T04:15:30;-23834.31;;;11.04;100.00
23659;BME280;12006;42.666;23.326;2023-04-01T04:17:55;-23835.31;;;11.07;100.00
23659;BME280;12006;42.666;23.326;2023-04-01T04:20:21;-23834.47;;;11.05;100.00
23659;BME280;12006;42.666;23.326;2023-04-01T04:22:46;-23837.69;;;11.14;100.00
23659;BME280;12006;42.666;23.326;2023-04-01T04:25:11;-23519.56;;;11.16;100.00
23659;BME280;12006;42.666;23.326;2023-04-01T04:27:37;-23199.09;;;11.11;100.00
23659;BME280;12006;42.666;23.326;2023-04-01T04:30:04;-22879.78;;;11.10;100.00
23659;BME280;12006;42.666;23.326;2023-04-01T04:32:30;-22882.69;;;11.19;100.00
23659;BME280;12006;42.666;23.326;2023-04-01T04:34:55;-22884.13;;;11.23;100.00
23659;BME280;12006;42.666;23.326;2023-04-01T04:37:21;-22565.84;;;11.25;100.00
23659;BME280;12006;42.666;23.326;2023-04-01T04:39:46;-22568.69;;;11.34;100.00
23659;BME280;12006;42.666;23.326;2023-04-01T04:42:12;-22248.16;;;11.29;100.00
23659;BME280;12006;42.666;23.326;2023-04-01T04:44:37;-22256.56;;;11.56;100.00
23659;BME280;12006;42.666;23.326;2023-04-01T04:47:03;-22254.53;;;11.49;100.00
23659;BME280;12006;42.666;23.326;2023-04-01T04:49:29;-21933.13;;;11.42;100.00
23659;BME280;12006;42.666;23.326;2023-04-01T04:51:54;-21933.44;;;11.43;100.00
23659;BME280;12006;42.666;23.326;2023-04-01T04:54:20;-22249.53;;;11.34;100.00
23659;BME280;12006;42.666;23.326;2023-04-01T04:56:45;-21608.31;;;11.23;100.00
23659;BME280;12006;42.666;23.326;2023-04-01T04:59:11;-21607.41;;;11.20;100.00
23659;BME280;12006;42.666;23.326;2023-04-01T05:01:37;-21611.63;;;11.34;100.00
23659;BME280;12006;42.666;23.326;2023-04-01T05:04:03;-21931.59;;;11.37;100.00
23659;BME280;12006;42.666;23.326;2023-04-01T05:06:28;-22247.84;;;11.28;100.00
23659;BME280;12006;42.666;23.326;2023-04-01T05:08:55;-21930.53;;;11.34;100.00
23659;BME280;12006;42.666;23.326;2023-04-01T05:11:21;-21606.50;;;11.17;100.00
23659;BME280;12006;42.666;23.326;2023-04-01T05:13:46;-21608.31;;;11.23;100.00
23659;BME280;12006;42.666;23.326;2023-04-01T05:16:15;-21607.41;;;11.20;100.00
23659;BME280;12006;42.666;23.326;2023-04-01T05:18:41;-21926.53;;;11.21;100.00
23659;BME280;12006;42.666;23.326;2023-04-01T05:21:11;-21921.94;;;11.06;100.00
23659;BME280;12006;42.666;23.326;2023-04-01T05:23:37;-22239.09;;;11.00;100.00
23659;BME280;12006;42.666;23.326;2023-04-01T05:26:08;-22241.28;;;11.07;100.00
23659;BME280;12006;42.666;23.326;2023-04-01T05:28:33;-21608.16;;;11.23;100.00
23659;BME280;12006;42.666;23.326;2023-04-01T05:31:00;-21924.53;;;11.14;100.00
23659;BME280;12006;42.666;23.326;2023-04-01T05:33:26;-21926.69;;;11.21;100.00
23659;BME280;12006;42.666;23.326;2023-04-01T05:35:52;-21609.50;;;11.27;100.00
23659;BME280;12006;42.666;23.326;2023-04-01T05:38:18;-21926.06;;;11.19;100.00
23659;BME280;12006;42.666;23.326;2023-04-01T05:40:43;-21928.22;;;11.26;100.00
23659;BME280;12006;42.666;23.326;2023-04-01T05:43:08;-21928.53;;;11.27;100.00
23659;BME280;12006;42.666;23.326;2023-04-01T05:45:34;-22251.09;;;11.39;100.00
23659;BME280;12006;42.666;23.326;2023-04-01T05:48:00;-21930.97;;;11.35;100.00
23659;BME280;12006;42.666;23.326;2023-04-01T05:50:25;-21933.13;;;11.42;100.00
23659;BME280;12006;42.666;23.326;2023-04-01T05:52:51;-21617.22;;;11.52;100.00
23659;BME280;12006;42.666;23.326;2023-04-01T05:55:16;-21944.47;;;11.79;100.00
23659;BME280;12006;42.666;23.326;2023-04-01T05:57:42;-21952.31;;;12.04;100.00
23659;BME280;12006;42.666;23.326;2023-04-01T06:00:10;-21961.03;;;12.32;100.00
23659;BME280;12006;42.666;23.326;2023-04-01T06:02:35;-21642.97;;;12.37;100.00
23659;BME280;12006;42.666;23.326;2023-04-01T06:07:36;-22306.16;;;13.14;100.00
23659;BME280;12006;42.666;23.326;2023-04-01T06:10:10;-22314.88;;;13.41;96.74
23659;BME280;12006;42.666;23.326;2023-04-01T06:15:51;-22655.56;;;14.06;89.15
23659;BME280;12006;42.666;23.326;2023-04-01T06:26:37;-22346.66;;;14.43;82.08
23659;BME280;12006;42.666;23.326;2023-04-01T06:50:40;-22678.84;;;14.79;81.69
23659;BME280;12006;42.666;23.326;2023-04-01T06:53:21;-22675.97;;;14.70;84.00
23659;BME280;12006;42.666;23.326;2023-04-01T06:55:57;-22344.47;;;14.36;87.60
23659;BME280;12006;42.666;23.326;2023-04-01T06:58:34;-22670.13;;;14.52;88.97
23659;BME280;12006;42.666;23.326;2023-04-01T07:01:04;-22670.59;;;14.53;89.91
23659;BME280;12006;42.666;23.326;2023-04-01T07:03:38;-22670.13;;;14.52;91.17
23659;BME280;12006;42.666;23.326;2023-04-01T07:06:36;-22666.66;;;14.41;92.76
23659;BME280;12006;42.666;23.326;2023-04-01T07:09:08;-22668.22;;;14.46;93.92
23659;BME280;12006;42.666;23.326;2023-04-01T07:11:38;-22672.34;;;14.58;94.02
23659;BME280;12006;42.666;23.326;2023-04-01T07:17:02;-23329.66;;;15.07;90.40
23659;BME280;12006;42.666;23.326;2023-04-01T07:19:35;-23329.34;;;15.06;90.58
23659;BME280;12006;42.666;23.326;2023-04-01T07:22:34;-23335.88;;;15.26;89.15
23659;BME280;12006;42.666;23.326;2023-04-01T07:25:07;-23333.25;;;15.18;90.60
23659;BME280;12006;42.666;23.326;2023-04-01T07:27:36;-23333.44;;;15.18;90.79
23659;BME280;12006;42.666;23.326;2023-04-01T07:30:06;-23338.50;;;15.34;90.23
23659;BME280;12006;42.666;23.326;2023-04-01T07:32:45;-23670.47;;;15.67;86.90
23659;BME280;12006;42.666;23.326;2023-04-01T07:35:38;-23343.41;;;15.49;85.67
23659;BME280;12006;42.666;23.326;2023-04-01T07:52:12;-23322.81;;;14.86;97.82
23659;BME280;12006;42.666;23.326;2023-04-01T07:57:35;-23324.78;;;14.92;97.21
23659;BME280;12006;42.666;23.326;2023-04-01T08:03:03;-23325.59;;;14.95;94.77
23659;BME280;12006;42.666;23.326;2023-04-01T08:05:49;-23324.78;;;14.92;96.54
23659;BME280;12006;42.666;23.326;2023-04-01T08:20:57;-23659.34;;;15.33;91.43
23659;BME280;12006;42.666;23.326;2023-04-01T08:23:36;-23665.16;;;15.51;92.31
23659;BME280;12006;42.666;23.326;2023-04-01T08:26:15;-23668.13;;;15.60;90.44
23659;BME280;12006;42.666;23.326;2023-04-01T08:28:55;-23672.13;;;15.72;88.72
23659;BME280;12006;42.666;23.326;2023-04-01T08:31:32;-23999.72;;;15.90;85.55
23659;BME280;12006;42.666;23.326;2023-04-01T08:34:02;-24005.44;;;16.07;85.42
23659;BME280;12006;42.666;23.326;2023-04-01T08:36:40;-24008.81;;;16.17;86.34
23659;BME280;12006;42.666;23.326;2023-04-01T08:39:35;-24016.91;;;16.41;83.60
23659;BME280;12006;42.666;23.326;2023-04-01T08:42:37;-24341.50;;;16.50;83.76
23659;BME280;12006;42.666;23.326;2023-04-01T08:53:41;-24352.78;;;16.83;81.28
23659;BME280;12006;42.666;23.326;2023-04-01T09:17:59;-24417.91;;;18.66;68.91
23659;BME280;12006;42.666;23.326;2023-04-01T09:39:37;-24441.16;;;19.34;59.71
23659;BME280;12006;42.666;23.326;2023-04-01T09:42:15;-24442.50;;;19.38;60.27
23659;BME280;12006;42.666;23.326;2023-04-01T09:45:00;-24440.97;;;19.33;59.59
23659;BME280;12006;42.666;23.326;2023-04-01T09:48:01;-24442.16;;;19.37;60.16
23659;BME280;12006;42.666;23.326;2023-04-01T09:56:07;-24466.75;;;20.08;56.89
23659;BME280;12006;42.666;23.326;2023-04-01T10:01:42;-24471.53;;;20.22;56.56
23659;BME280;12006;42.666;23.326;2023-04-01T10:15:42;-24456.50;;;19.78;57.47
23659;BME280;12006;42.666;23.326;2023-04-01T10:21:42;-24454.44;;;19.72;57.68
23659;BME280;12006;42.666;23.326;2023-04-01T10:53:03;-24400.31;;;18.21;62.61
23659;BME280;12006;42.666;23.326;2023-04-01T10:55:53;-24402.34;;;18.26;60.56
23659;BME280;12006;42.666;23.326;2023-04-01T10:58:44;-24407.81;;;18.42;58.09
23659;BME280;12006;42.666;23.326;2023-04-01T11:10:10;-24078.53;;;18.23;59.16
23659;BME280;12006;42.666;23.326;2023-04-01T11:37:55;-23708.94;;;16.82;74.27
23659;BME280;12006;42.666;23.326;2023-04-01T11:40:35;-23373.13;;;16.39;72.88
23659;BME280;12006;42.666;23.326;2023-04-01T11:43:24;-23038.19;;;15.98;80.07
23659;BME280;12006;42.666;23.326;2023-04-01T11:46:03;-22990.91;;;14.52;100.00
23659;BME280;12006;42.666;23.326;2023-04-01T11:48:40;-23604.03;;;13.68;100.00
23659;BME280;12006;42.666;23.326;2023-04-01T11:51:19;-24227.63;;;13.20;100.00
23659;BME280;12006;42.666;23.326;2023-04-01T12:05:38;-24156.59;;;11.09;100.00
23659;BME280;12006;42.666;23.326;2023-04-01T12:08:26;-24154.22;;;11.02;100.00
23659;BME280;12006;42.666;23.326;2023-04-01T12:14:02;-24153.16;;;10.99;100.00
23659;BME280;12006;42.666;23.326;2023-04-01T12:16:37;-24160.22;;;11.20;100.00
23659;BME280;12006;42.666;23.326;2023-04-01T12:35:24;-24203.59;;;12.45;100.00
23659;BME280;12006;42.666;23.326;2023-04-01T12:40:56;-24201.03;;;12.38;100.00
23659;BME280;12006;42.666;23.326;2023-04-01T12:43:44;-24200.19;;;12.35;100.00
23659;BME280;12006;42.666;23.326;2023-04-01T12:46:24;-24192.97;;;12.14;100.00
23659;BME280;12006;42.666;23.326;2023-04-01T12:49:19;-24190.91;;;12.09;100.00
23659;BME280;12006;42.666;23.326;2023-04-01T12:52:10;-24189.56;;;12.05;100.00
23659;BME280;12006;42.666;23.326;2023-04-01T13:05:50;-24181.16;;;11.80;100.00
23659;BME280;12006;42.666;23.326;2023-04-01T13:08:38;-24187.50;;;11.99;100.00
23659;BME280;12006;42.666;23.326;2023-04-01T13:16:54;-24206.34;;;12.53;100.00
23659;BME280;12006;42.666;23.326;2023-04-01T13:19:35;-24214.94;;;12.78;100.00
23659;BME280;12006;42.666;23.326;2023-04-01T13:22:07;-24220.06;;;12.93;100.00
23659;BME280;12006;42.666;23.326;2023-04-01T13:24:41;-24230.88;;;13.24;100.00
23659;BME280;12006;42.666;23.326;2023-04-01T13:32:54;-24249.22;;;13.77;100.00
23659;BME280;12006;42.666;23.326;2023-04-01T13:44:12;-24230.69;;;13.24;100.00
23659;BME280;12006;42.666;23.326;2023-04-01T14:08:36;-24245.44;;;13.66;100.00
23659;BME280;12006;42.666;23.326;2023-04-01T14:11:48;-24241.16;;;13.54;100.00
23659;BME280;12006;42.666;23.326;2023-04-01T14:23:09;-24245.09;;;13.65;100.00
23659;BME280;12006;42.666;23.326;2023-04-01T14:37:07;-24267.03;;;14.29;100.00
23659;BME280;12006;42.666;23.326;2023-04-01T14:40:05;-24261.72;;;14.13;100.00
23659;BME280;12006;42.666;23.326;2023-04-01T14:48:23;-24255.88;;;13.96;100.00
23659;BME280;12006;42.666;23.326;2023-04-01T14:50:53;-24256.06;;;13.97;100.00
23659;BME280;12006;42.666;23.326;2023-04-01T14:55:49;-24251.25;;;13.83;100.00
23659;BME280;12006;42.666;23.326;2023-04-01T14:58:17;-24246.81;;;13.70;100.00
23659;BME280;12006;42.666;23.326;2023-04-01T15:11:47;-24254.00;;;13.91;100.00
23659;BME280;12006;42.666;23.326;2023-04-01T15:38:51;-24251.59;;;13.84;100.00
23659;BME280;12006;42.666;23.326;2023-04-01T15:44:37;-24255.72;;;13.96;100.00
23659;BME280;12006;42.666;23.326;2023-04-01T15:47:36;-24257.25;;;14.00;100.00
23659;BME280;12006;42.666;23.326;2023-04-01T15:53:06;-24211.84;;;12.69;100.00
23659;BME280;12006;42.666;23.326;2023-04-01T15:55:54;-24186.47;;;11.96;100.00
23659;BME280;12006;42.666;23.326;2023-04-01T16:17:17;56206.44;;;-138.99;100.00
23659;BME280;12006;42.666;23.326;2023-04-01T16:27:36;-24099.13;;;-138.99;100.00
23659;BME280;12006;42.666;23.326;2023-04-01T16:31:43;56206.44;;;-138.99;100.00
23659;BME280;12006;42.666;23.326;2023-04-01T16:42:23;56206.44;;;-138.99;100.00
23659;BME280;12006;42.666;23.326;2023-04-01T16:54:30;56206.44;;;-138.99;100.00
23659;BME280;12006;42.666;23.326;2023-04-01T16:58:01;56206.44;;;-138.99;100.00
23659;BME280;12006;42.666;23.326;2023-04-01T17:05:04;56206.44;;;-138.99;100.00
23659;BME280;12006;42.666;23.326;2023-04-01T17:20:17;56206.44;;;-138.99;100.00
23659;BME280;12006;42.666;23.326;2023-04-01T17:23:50;56206.44;;;-138.99;100.00
23659;BME280;12006;42.666;23.326;2023-04-01T17:27:57;56206.44;;;-138.99;100.00
23659;BME280;12006;42.666;23.326;2023-04-01T17:31:12;56206.44;;;-138.99;100.00
23659;BME280;12006;42.666;23.326;2023-04-01T17:42:15;56206.44;;;-138.99;100.00
23659;BME280;12006;42.666;23.326;2023-04-01T17:45:56;56206.44;;;-138.99;100.00
23659;BME280;12006;42.666;23.326;2023-04-01T17:49:49;56206.44;;;-138.99;100.00
23659;BME280;12006;42.666;23.326;2023-04-01T18:04:46;56206.44;;;-138.99;100.00
23659;BME280;12006;42.666;23.326;2023-04-01T18:16:16;56206.44;;;-138.99;100.00
23659;BME280;12006;42.666;23.326;2023-04-01T18:27:24;56206.44;;;-138.99;100.00
23659;BME280;12006;42.666;23.326;2023-04-01T18:30:59;56206.44;;;-138.99;100.00
23659;BME280;12006;42.666;23.326;2023-04-01T18:38:29;56206.44;;;-138.99;100.00
23659;BME280;12006;42.666;23.326;2023-04-01T18:50:13;56206.44;;;-138.99;100.00
23659;BME280;12006;42.666;23.326;2023-04-01T18:57:54;56206.44;;;-138.99;100.00
23659;BME280;12006;42.666;23.326;2023-04-01T19:01:36;56206.44;;;-138.99;100.00
23659;BME280;12006;42.666;23.326;2023-04-01T19:05:30;56206.44;;;-138.99;100.00
23659;BME280;12006;42.666;23.326;2023-04-01T19:09:31;56206.44;;;-138.99;100.00
23659;BME280;12006;42.666;23.326;2023-04-01T19:17:13;56206.44;;;-138.99;100.00
23659;BME280;12006;42.666;23.326;2023-04-01T19:24:44;56206.44;;;-138.99;100.00
23659;BME280;12006;42.666;23.326;2023-04-01T19:32:38;56206.44;;;-138.99;100.00
23659;BME280;12006;42.666;23.326;2023-04-01T19:35:46;56206.44;;;-138.99;100.00
23659;BME280;12006;42.666;23.326;2023-04-01T19:39:33;56206.44;;;-138.99;100.00
23659;BME280;12006;42.666;23.326;2023-04-01T19:46:49;56206.44;;;-138.99;100.00
23659;BME280;12006;42.666;23.326;2023-04-01T19:50:29;56206.44;;;-138.99;100.00
23659;BME280;12006;42.666;23.326;2023-04-01T19:54:25;56206.44;;;-138.99;100.00
23659;BME280;12006;42.666;23.326;2023-04-01T20:01:43;56206.44;;;-138.99;100.00
23659;BME280;12006;42.666;23.326;2023-04-01T20:23:45;56206.44;;;-138.99;100.00
23659;BME280;12006;42.666;23.326;2023-04-01T20:27:30;56206.44;;;-138.99;100.00
23659;BME280;12006;42.666;23.326;2023-04-01T20:35:00;56206.44;;;-138.99;100.00
23659;BME280;12006;42.666;23.326;2023-04-01T20:42:39;56206.44;;;-138.99;100.00
23659;BME280;12006;42.666;23.326;2023-04-01T20:46:19;56206.44;;;-138.99;100.00
23659;BME280;12006;42.666;23.326;2023-04-01T20:53:38;56206.44;;;-138.99;100.00
23659;BME280;12006;42.666;23.326;2023-04-01T21:01:17;56206.44;;;-138.99;100.00
23659;BME280;12006;42.666;23.326;2023-04-01T21:05:09;56206.44;;;-138.99;100.00
23659;BME280;12006;42.666;23.326;2023-04-01T21:09:13;56206.44;;;-138.99;100.00
23659;BME280;12006;42.666;23.326;2023-04-01T21:12:48;56206.44;;;-138.99;100.00
23659;BME280;12006;42.666;23.326;2023-04-01T21:20:22;56206.44;;;-138.99;100.00
23659;BME280;12006;42.666;23.326;2023-04-01T21:24:30;56206.44;;;-138.99;100.00
23659;BME280;12006;42.666;23.326;2023-04-01T21:31:54;56206.44;;;-138.99;100.00
23659;BME280;12006;42.666;23.326;2023-04-01T21:47:08;56206.44;;;-138.99;100.00
23659;BME280;12006;42.666;23.326;2023-04-01T22:05:39;56206.44;;;-138.99;100.00
23659;BME280;12006;42.666;23.326;2023-04-01T22:13:10;56206.44;;;-138.99;100.00
23659;BME280;12006;42.666;23.326;2023-04-01T22:24:12;56206.44;;;-138.99;100.00
23659;BME280;12006;42.666;23.326;2023-04-01T22:27:52;56206.44;;;-138.99;100.00
23659;BME280;12006;42.666;23.326;2023-04-01T22:31:24;56206.44;;;-138.99;100.00
23659;BME280;12006;42.666;23.326;2023-04-01T22:35:00;56206.44;;;-138.99;100.00
23659;BME280;12006;42.666;23.326;2023-04-01T22:38:31;56206.44;;;-138.99;100.00
23659;BME280;12006;42.666;23.326;2023-04-01T22:50:14;56206.44;;;-138.99;100.00
23659;BME280;12006;42.666;23.326;2023-04-01T23:00:35;56206.44;;;-138.99;100.00
23659;BME280;12006;42.666;23.326;2023-04-01T23:04:16;56206.44;;;-138.99;100.00
23659;BME280;12006;42.666;23.326;2023-04-01T23:15:39;56206.44;;;-138.99;100.00
23659;BME280;12006;42.666;23.326;2023-04-01T23:19:18;56206.44;;;-138.99;100.00
23659;BME280;12006;42.666;23.326;2023-04-01T23:27:05;56206.44;;;-138.99;100.00
23659;BME280;12006;42.666;23.326;2023-04-01T23:34:25;56206.44;;;-138.99;100.00
23659;BME280;12006;42.666;23.326;2023-04-01T23:37:51;56206.44;;;-138.99;100.00
23659;BME280;12006;42.666;23.326;2023-04-01T23:41:20;56206.44;;;-138.99;100.00
23659;BME280;12006;42.666;23.326;2023-04-01T23:44:55;56206.44;;;-138.99;100.00
23659;BME280;12006;42.666;23.326;2023-04-01T23:48:24;56206.44;;;-138.99;100.00
23659;BME280;12006;42.666;23.326;2023-04-01T23:51:57;56206.44;;;-138.99;100.00
23659;BME280;12006;42.666;23.326;2023-04-01T23:55:29;56206.44;;;-138.99;100.00
23659;BME280;12006;42.666;23.326;2023-04-01T23:59:04;56206.44;;;-138.99;100.00
